RUK2196 EGCC-LEXJ
Flight info
| Callsign | RUK2196 |
|---|---|
| Flight time | 1h 43m |
| Altitude | 23000 |
| Route | ASMIM DCT NOKIN P17 BEPHE/N0428F340 DCT OSSEP DCT ELNIF DCT ZESPE DCT DAWLY DCT BHD DCT SALCO/N0431F350 DCT NENEM/N0336F190 Q42 XORNA |
| Aircraft | B738/M-SDE2E3FGHIRWXY/LB1 |
Departure
| Time | 2026-04-21 04:57 |
|---|---|
| Airport | Manchester Airport (EGCC) |
Arrival
| Time | 2026-04-21 06:40 |
|---|---|
| Airport | Seve Ballesteros-Santander Airport (LEXJ) |
| Time | Latitude | Longitude | Altitude | Speed | Heading |
|---|---|---|---|---|---|
| 2026-04-21 04:24 | 53.35951 | -2.27138 | 260 ft | 0 kts | 89° |
| 2026-04-21 04:47 | 53.35950 | -2.27158 | 259 ft | 2 kts | 73° |
| 2026-04-21 04:47 | 53.35946 | -2.27183 | 259 ft | 2 kts | 79° |
| 2026-04-21 04:47 | 53.35945 | -2.27208 | 259 ft | 2 kts | 109° |
| 2026-04-21 04:47 | 53.35954 | -2.27230 | 259 ft | 2 kts | 147° |
| 2026-04-21 04:48 | 53.35965 | -2.27237 | 259 ft | 0 kts | 175° |
| 2026-04-21 04:48 | 53.35972 | -2.27237 | 259 ft | 1 kts | 180° |
| 2026-04-21 04:48 | 53.35973 | -2.27237 | 259 ft | 0 kts | 179° |
| 2026-04-21 04:50 | 53.35970 | -2.27237 | 259 ft | 0 kts | 179° |
| 2026-04-21 04:51 | 53.35968 | -2.27237 | 259 ft | 0 kts | 179° |
| 2026-04-21 04:51 | 53.35956 | -2.27237 | 259 ft | 2 kts | 180° |
| 2026-04-21 04:51 | 53.35925 | -2.27232 | 259 ft | 6 kts | 170° |
| 2026-04-21 04:51 | 53.35867 | -2.27215 | 259 ft | 9 kts | 174° |
| 2026-04-21 04:52 | 53.35814 | -2.27269 | 259 ft | 10 kts | 227° |
| 2026-04-21 04:52 | 53.35764 | -2.27374 | 259 ft | 12 kts | 232° |
| 2026-04-21 04:52 | 53.35701 | -2.27500 | 259 ft | 15 kts | 230° |
| 2026-04-21 04:52 | 53.35627 | -2.27651 | 259 ft | 17 kts | 230° |
| 2026-04-21 04:53 | 53.35538 | -2.27789 | 259 ft | 18 kts | 223° |
| 2026-04-21 04:53 | 53.35439 | -2.27944 | 259 ft | 20 kts | 223° |
| 2026-04-21 04:53 | 53.35335 | -2.28119 | 259 ft | 20 kts | 228° |
| 2026-04-21 04:53 | 53.35236 | -2.28285 | 259 ft | 15 kts | 220° |
| 2026-04-21 04:54 | 53.35178 | -2.28398 | 259 ft | 9 kts | 231° |
| 2026-04-21 04:54 | 53.35147 | -2.28465 | 259 ft | 4 kts | 233° |
| 2026-04-21 04:54 | 53.35136 | -2.28490 | 259 ft | 0 kts | 234° |
| 2026-04-21 04:54 | 53.35123 | -2.28519 | 259 ft | 5 kts | 234° |
| 2026-04-21 04:55 | 53.35091 | -2.28591 | 259 ft | 9 kts | 232° |
| 2026-04-21 04:55 | 53.35037 | -2.28703 | 259 ft | 13 kts | 230° |
| 2026-04-21 04:55 | 53.34955 | -2.28726 | 259 ft | 13 kts | 144° |
| 2026-04-21 04:55 | 53.34880 | -2.28618 | 259 ft | 12 kts | 135° |
| 2026-04-21 04:56 | 53.34873 | -2.28544 | 259 ft | 5 kts | 51° |
| 2026-04-21 04:56 | 53.34893 | -2.28502 | 259 ft | 24 kts | 51° |
| 2026-04-21 04:56 | 53.35172 | -2.27920 | 259 ft | 96 kts | 51° |
| 2026-04-21 04:56 | 53.35718 | -2.26781 | 260 ft | 151 kts | 51° |
| 2026-04-21 04:57 | 53.36436 | -2.25310 | 680 ft | 165 kts | 50° |
| 2026-04-21 04:57 | 53.37211 | -2.23768 | 1283 ft | 171 kts | 51° |
| 2026-04-21 04:57 | 53.37995 | -2.22160 | 1782 ft | 186 kts | 51° |
| 2026-04-21 04:57 | 53.38988 | -2.20725 | 2331 ft | 196 kts | 26° |
| 2026-04-21 04:58 | 53.40402 | -2.20644 | 2928 ft | 216 kts | 344° |
| 2026-04-21 04:58 | 53.41672 | -2.22145 | 3686 ft | 224 kts | 321° |
| 2026-04-21 04:58 | 53.42635 | -2.24410 | 4052 ft | 252 kts | 297° |
| 2026-04-21 04:58 | 53.43255 | -2.27294 | 4417 ft | 272 kts | 291° |
| 2026-04-21 04:59 | 53.43887 | -2.30410 | 4933 ft | 282 kts | 292° |
| 2026-04-21 04:59 | 53.44586 | -2.33602 | 4980 ft | 287 kts | 296° |
| 2026-04-21 04:59 | 53.45436 | -2.36625 | 4992 ft | 278 kts | 300° |
| 2026-04-21 04:59 | 53.46328 | -2.39556 | 4996 ft | 280 kts | 299° |
| 2026-04-21 05:00 | 53.46932 | -2.42754 | 4988 ft | 284 kts | 277° |
| 2026-04-21 05:00 | 53.46776 | -2.46103 | 5012 ft | 284 kts | 260° |
| 2026-04-21 05:00 | 53.46018 | -2.52625 | 4991 ft | 284 kts | 259° |
| 2026-04-21 05:01 | 53.45645 | -2.55921 | 4993 ft | 285 kts | 260° |
| 2026-04-21 05:01 | 53.45278 | -2.59205 | 4991 ft | 285 kts | 260° |
| 2026-04-21 05:01 | 53.44875 | -2.62515 | 4988 ft | 285 kts | 252° |
| 2026-04-21 05:01 | 53.43880 | -2.65395 | 4991 ft | 281 kts | 219° |
| 2026-04-21 05:02 | 53.42136 | -2.66925 | 5631 ft | 276 kts | 194° |
| 2026-04-21 05:02 | 53.40321 | -2.67976 | 6366 ft | 280 kts | 196° |
| 2026-04-21 05:02 | 53.38443 | -2.69147 | 7094 ft | 283 kts | 197° |
| 2026-04-21 05:02 | 53.36572 | -2.70322 | 7820 ft | 286 kts | 197° |
| 2026-04-21 05:03 | 53.34710 | -2.71490 | 8566 ft | 288 kts | 197° |
| 2026-04-21 05:03 | 53.32823 | -2.72669 | 9297 ft | 290 kts | 197° |
| 2026-04-21 05:03 | 53.30896 | -2.73868 | 10074 ft | 291 kts | 198° |
| 2026-04-21 05:03 | 53.28959 | -2.75071 | 10755 ft | 297 kts | 198° |
| 2026-04-21 05:04 | 53.26918 | -2.76337 | 10938 ft | 320 kts | 199° |
| 2026-04-21 05:04 | 53.24746 | -2.77691 | 11470 ft | 330 kts | 199° |
| 2026-04-21 05:04 | 53.22566 | -2.79046 | 12137 ft | 335 kts | 199° |
| 2026-04-21 05:04 | 53.20365 | -2.80414 | 12866 ft | 338 kts | 199° |
| 2026-04-21 05:05 | 53.18116 | -2.81812 | 13599 ft | 341 kts | 199° |
| 2026-04-21 05:05 | 53.15858 | -2.83212 | 14313 ft | 344 kts | 200° |
| 2026-04-21 05:05 | 53.13564 | -2.84631 | 15033 ft | 347 kts | 200° |
| 2026-04-21 05:05 | 53.11239 | -2.86069 | 15743 ft | 351 kts | 200° |
| 2026-04-21 05:06 | 53.08868 | -2.87281 | 16438 ft | 355 kts | 192° |
| 2026-04-21 05:06 | 53.06330 | -2.87748 | 17084 ft | 360 kts | 178° |
| 2026-04-21 05:06 | 53.03815 | -2.87295 | 17797 ft | 361 kts | 171° |
| 2026-04-21 05:06 | 53.01298 | -2.86575 | 18402 ft | 366 kts | 171° |
| 2026-04-21 05:07 | 52.98709 | -2.85827 | 19005 ft | 371 kts | 171° |
| 2026-04-21 05:07 | 52.96123 | -2.85110 | 19615 ft | 374 kts | 172° |
| 2026-04-21 05:07 | 52.93483 | -2.84398 | 20205 ft | 378 kts | 172° |
| 2026-04-21 05:07 | 52.90835 | -2.83688 | 20779 ft | 382 kts | 172° |
| 2026-04-21 05:08 | 52.88174 | -2.82974 | 21308 ft | 387 kts | 172° |
| 2026-04-21 05:08 | 52.85452 | -2.82245 | 21866 ft | 390 kts | 172° |
| 2026-04-21 05:08 | 52.82743 | -2.81516 | 22387 ft | 394 kts | 172° |
| 2026-04-21 05:08 | 52.79967 | -2.80771 | 22909 ft | 398 kts | 172° |
| 2026-04-21 05:09 | 52.77184 | -2.80024 | 23398 ft | 402 kts | 173° |
| 2026-04-21 05:09 | 52.74369 | -2.79271 | 23879 ft | 406 kts | 173° |
| 2026-04-21 05:09 | 52.71524 | -2.78509 | 24359 ft | 409 kts | 173° |
| 2026-04-21 05:09 | 52.68620 | -2.77730 | 24814 ft | 413 kts | 173° |
| 2026-04-21 05:10 | 52.65751 | -2.76961 | 25232 ft | 418 kts | 174° |
| 2026-04-21 05:10 | 52.62813 | -2.76352 | 25680 ft | 420 kts | 178° |
| 2026-04-21 05:10 | 52.59844 | -2.76194 | 26096 ft | 421 kts | 184° |
| 2026-04-21 05:10 | 52.56852 | -2.76329 | 26522 ft | 423 kts | 186° |
| 2026-04-21 05:11 | 52.53861 | -2.76530 | 26936 ft | 426 kts | 186° |
| 2026-04-21 05:11 | 52.50875 | -2.76751 | 27345 ft | 429 kts | 187° |
| 2026-04-21 05:11 | 52.47814 | -2.76990 | 27740 ft | 432 kts | 187° |
| 2026-04-21 05:11 | 52.44789 | -2.77233 | 28121 ft | 436 kts | 187° |
| 2026-04-21 05:12 | 52.41701 | -2.77487 | 28503 ft | 439 kts | 188° |
| 2026-04-21 05:12 | 52.38570 | -2.77749 | 28865 ft | 442 kts | 188° |
| 2026-04-21 05:12 | 52.35458 | -2.78011 | 29258 ft | 444 kts | 188° |
| 2026-04-21 05:12 | 52.32344 | -2.78276 | 29600 ft | 447 kts | 188° |
| 2026-04-21 05:13 | 52.29195 | -2.78543 | 29943 ft | 450 kts | 189° |
| 2026-04-21 05:13 | 52.25975 | -2.78819 | 30295 ft | 453 kts | 189° |
| 2026-04-21 05:13 | 52.22797 | -2.79096 | 30643 ft | 455 kts | 189° |
| 2026-04-21 05:13 | 52.19587 | -2.79372 | 31096 ft | 454 kts | 189° |
| 2026-04-21 05:14 | 52.16374 | -2.79648 | 31531 ft | 454 kts | 189° |
| 2026-04-21 05:14 | 52.13193 | -2.79920 | 31973 ft | 453 kts | 189° |
| 2026-04-21 05:14 | 52.10043 | -2.80188 | 32446 ft | 451 kts | 189° |
| 2026-04-21 05:14 | 52.06874 | -2.80457 | 32859 ft | 451 kts | 189° |
| 2026-04-21 05:15 | 52.03701 | -2.80728 | 33275 ft | 450 kts | 189° |
| 2026-04-21 05:15 | 52.00523 | -2.81000 | 33734 ft | 448 kts | 189° |
| 2026-04-21 05:15 | 51.97368 | -2.81254 | 34071 ft | 449 kts | 189° |
| 2026-04-21 05:15 | 51.94223 | -2.81513 | 34474 ft | 448 kts | 189° |
| 2026-04-21 05:16 | 51.91054 | -2.81793 | 34871 ft | 446 kts | 189° |
| 2026-04-21 05:16 | 51.87901 | -2.82072 | 35246 ft | 445 kts | 189° |
| 2026-04-21 05:16 | 51.84789 | -2.82369 | 35615 ft | 443 kts | 190° |
| 2026-04-21 05:16 | 51.81724 | -2.82938 | 35968 ft | 440 kts | 193° |
| 2026-04-21 05:17 | 51.78662 | -2.83630 | 36322 ft | 438 kts | 193° |
| 2026-04-21 05:17 | 51.75611 | -2.84321 | 36630 ft | 438 kts | 193° |
| 2026-04-21 05:17 | 51.72555 | -2.85002 | 36935 ft | 438 kts | 192° |
| 2026-04-21 05:17 | 51.69485 | -2.85679 | 37226 ft | 438 kts | 192° |
| 2026-04-21 05:18 | 51.66437 | -2.86344 | 37333 ft | 440 kts | 192° |
| 2026-04-21 05:18 | 51.63331 | -2.87014 | 37310 ft | 439 kts | 192° |
| 2026-04-21 05:18 | 51.57254 | -2.88445 | 37303 ft | 431 kts | 195° |
| 2026-04-21 05:19 | 51.51445 | -2.91176 | 37296 ft | 426 kts | 204° |
| 2026-04-21 05:19 | 51.45754 | -2.94513 | 37297 ft | 427 kts | 205° |
| 2026-04-21 05:20 | 51.40043 | -2.97908 | 37301 ft | 427 kts | 205° |
| 2026-04-21 05:20 | 51.34394 | -3.01271 | 37304 ft | 427 kts | 205° |
| 2026-04-21 05:21 | 51.28709 | -3.04651 | 37308 ft | 426 kts | 205° |
| 2026-04-21 05:21 | 51.23048 | -3.08013 | 37312 ft | 426 kts | 205° |
| 2026-04-21 05:22 | 51.17410 | -3.11357 | 37315 ft | 427 kts | 205° |
| 2026-04-21 05:22 | 51.11764 | -3.14696 | 37317 ft | 427 kts | 205° |
| 2026-04-21 05:23 | 51.06101 | -3.18037 | 37317 ft | 426 kts | 205° |
| 2026-04-21 05:23 | 51.00485 | -3.21341 | 37313 ft | 426 kts | 205° |
| 2026-04-21 05:24 | 50.94843 | -3.24652 | 37304 ft | 426 kts | 205° |
| 2026-04-21 05:24 | 50.89169 | -3.27970 | 37294 ft | 426 kts | 205° |
| 2026-04-21 05:25 | 50.83473 | -3.31297 | 37290 ft | 425 kts | 205° |
| 2026-04-21 05:25 | 50.77800 | -3.34601 | 37290 ft | 426 kts | 205° |
| 2026-04-21 05:26 | 50.72120 | -3.37902 | 37290 ft | 425 kts | 205° |
| 2026-04-21 05:26 | 50.66493 | -3.41161 | 37290 ft | 425 kts | 205° |
| 2026-04-21 05:27 | 50.60807 | -3.44415 | 37290 ft | 426 kts | 204° |
| 2026-04-21 05:27 | 50.54874 | -3.46662 | 37292 ft | 433 kts | 193° |
| 2026-04-21 05:28 | 50.48796 | -3.47795 | 37290 ft | 434 kts | 192° |
| 2026-04-21 05:28 | 50.42676 | -3.48860 | 37290 ft | 434 kts | 191° |
| 2026-04-21 05:29 | 50.36518 | -3.49678 | 37287 ft | 437 kts | 187° |
| 2026-04-21 05:29 | 50.30330 | -3.49971 | 37276 ft | 437 kts | 187° |
| 2026-04-21 05:30 | 50.24154 | -3.50269 | 37266 ft | 436 kts | 187° |
| 2026-04-21 05:30 | 50.17974 | -3.50584 | 37263 ft | 436 kts | 187° |
| 2026-04-21 05:31 | 50.11793 | -3.50910 | 37263 ft | 436 kts | 187° |
| 2026-04-21 05:31 | 50.05606 | -3.51242 | 37263 ft | 437 kts | 187° |
| 2026-04-21 05:32 | 49.99372 | -3.51577 | 37263 ft | 436 kts | 187° |
| 2026-04-21 05:32 | 49.93183 | -3.51911 | 37263 ft | 435 kts | 187° |
| 2026-04-21 05:33 | 49.86996 | -3.52243 | 37245 ft | 435 kts | 187° |
| 2026-04-21 05:33 | 49.80841 | -3.52573 | 37214 ft | 436 kts | 187° |
| 2026-04-21 05:34 | 49.74662 | -3.52904 | 37183 ft | 436 kts | 187° |
| 2026-04-21 05:34 | 49.68446 | -3.52717 | 37183 ft | 438 kts | 182° |
| 2026-04-21 05:35 | 49.62218 | -3.52184 | 37182 ft | 439 kts | 182° |
| 2026-04-21 05:35 | 49.56019 | -3.51686 | 37182 ft | 439 kts | 182° |
| 2026-04-21 05:36 | 49.49793 | -3.51206 | 37182 ft | 439 kts | 182° |
| 2026-04-21 05:36 | 49.43594 | -3.50739 | 37182 ft | 438 kts | 182° |
| 2026-04-21 05:37 | 49.37364 | -3.50276 | 37182 ft | 438 kts | 182° |
| 2026-04-21 05:37 | 49.31159 | -3.49820 | 37182 ft | 438 kts | 182° |
| 2026-04-21 05:38 | 49.25001 | -3.49370 | 37180 ft | 438 kts | 182° |
| 2026-04-21 05:38 | 49.18803 | -3.48920 | 37168 ft | 437 kts | 182° |
| 2026-04-21 05:39 | 49.12595 | -3.48468 | 37158 ft | 437 kts | 182° |
| 2026-04-21 05:39 | 49.06408 | -3.48017 | 37155 ft | 437 kts | 182° |
| 2026-04-21 05:40 | 49.00225 | -3.47572 | 37154 ft | 437 kts | 182° |
| 2026-04-21 05:40 | 48.94064 | -3.47127 | 37155 ft | 436 kts | 182° |
| 2026-04-21 05:41 | 48.87904 | -3.46688 | 37154 ft | 436 kts | 182° |
| 2026-04-21 05:41 | 48.81797 | -3.46248 | 37155 ft | 436 kts | 182° |
| 2026-04-21 05:42 | 48.75618 | -3.45809 | 37154 ft | 435 kts | 182° |
| 2026-04-21 05:42 | 48.69471 | -3.45369 | 37155 ft | 435 kts | 182° |
| 2026-04-21 05:43 | 48.63339 | -3.44933 | 37155 ft | 434 kts | 182° |
| 2026-04-21 05:43 | 48.57239 | -3.44500 | 37146 ft | 434 kts | 182° |
| 2026-04-21 05:44 | 48.51080 | -3.44063 | 37135 ft | 434 kts | 182° |
| 2026-04-21 05:44 | 48.44951 | -3.43629 | 37127 ft | 434 kts | 182° |
| 2026-04-21 05:45 | 48.38829 | -3.43198 | 37128 ft | 433 kts | 182° |
| 2026-04-21 05:45 | 48.32756 | -3.42774 | 37128 ft | 433 kts | 182° |
| 2026-04-21 05:46 | 48.26636 | -3.42344 | 37128 ft | 433 kts | 182° |
| 2026-04-21 05:46 | 48.20526 | -3.41915 | 37127 ft | 433 kts | 182° |
| 2026-04-21 05:47 | 48.14455 | -3.41491 | 37128 ft | 432 kts | 182° |
| 2026-04-21 05:47 | 48.08316 | -3.41064 | 37128 ft | 433 kts | 182° |
| 2026-04-21 05:48 | 48.02246 | -3.40642 | 37128 ft | 433 kts | 182° |
| 2026-04-21 05:48 | 47.96131 | -3.40218 | 37124 ft | 432 kts | 182° |
| 2026-04-21 05:49 | 47.90038 | -3.39796 | 37113 ft | 432 kts | 182° |
| 2026-04-21 05:49 | 47.83927 | -3.39374 | 37103 ft | 432 kts | 182° |
| 2026-04-21 05:50 | 47.77780 | -3.38950 | 37101 ft | 432 kts | 182° |
| 2026-04-21 05:50 | 47.71668 | -3.38531 | 37101 ft | 432 kts | 182° |
| 2026-04-21 05:51 | 47.65553 | -3.38113 | 37101 ft | 432 kts | 182° |
| 2026-04-21 05:51 | 47.59438 | -3.37695 | 37101 ft | 432 kts | 182° |
| 2026-04-21 05:52 | 47.53310 | -3.37275 | 37101 ft | 432 kts | 182° |
| 2026-04-21 05:52 | 47.47212 | -3.36862 | 37095 ft | 432 kts | 182° |
| 2026-04-21 05:53 | 47.41091 | -3.36448 | 37085 ft | 432 kts | 182° |
| 2026-04-21 05:53 | 47.34930 | -3.36031 | 37075 ft | 432 kts | 182° |
| 2026-04-21 05:54 | 47.28818 | -3.35618 | 37074 ft | 432 kts | 182° |
| 2026-04-21 05:54 | 47.22671 | -3.35201 | 37074 ft | 432 kts | 182° |
| 2026-04-21 05:55 | 47.16566 | -3.34792 | 37074 ft | 432 kts | 182° |
| 2026-04-21 05:55 | 47.10407 | -3.34376 | 37074 ft | 432 kts | 182° |
| 2026-04-21 05:56 | 47.04285 | -3.33968 | 37074 ft | 432 kts | 182° |
| 2026-04-21 05:56 | 46.98163 | -3.33561 | 37074 ft | 432 kts | 182° |
| 2026-04-21 05:57 | 46.91989 | -3.33150 | 37074 ft | 432 kts | 182° |
| 2026-04-21 05:57 | 46.85896 | -3.32745 | 37073 ft | 431 kts | 182° |
| 2026-04-21 05:58 | 46.79754 | -3.32336 | 37062 ft | 432 kts | 183° |
| 2026-04-21 05:58 | 46.73665 | -3.31935 | 37052 ft | 432 kts | 183° |
| 2026-04-21 05:59 | 46.67514 | -3.31530 | 37047 ft | 432 kts | 183° |
| 2026-04-21 06:00 | 46.58349 | -3.30927 | 37047 ft | 432 kts | 183° |
| 2026-04-21 06:00 | 46.52218 | -3.30525 | 37047 ft | 432 kts | 183° |
| 2026-04-21 06:01 | 46.46101 | -3.30121 | 37046 ft | 431 kts | 183° |
| 2026-04-21 06:01 | 46.39971 | -3.29722 | 37047 ft | 431 kts | 183° |
| 2026-04-21 06:02 | 46.33842 | -3.29324 | 37047 ft | 431 kts | 183° |
| 2026-04-21 06:02 | 46.27745 | -3.28928 | 37047 ft | 431 kts | 183° |
| 2026-04-21 06:03 | 46.21601 | -3.28527 | 37045 ft | 431 kts | 183° |
| 2026-04-21 06:03 | 46.15475 | -3.28131 | 37035 ft | 431 kts | 183° |
| 2026-04-21 06:04 | 46.09379 | -3.27738 | 37024 ft | 431 kts | 183° |
| 2026-04-21 06:04 | 46.03296 | -3.27346 | 37020 ft | 431 kts | 183° |
| 2026-04-21 06:05 | 45.97157 | -3.26954 | 37020 ft | 431 kts | 183° |
| 2026-04-21 06:05 | 45.91052 | -3.26562 | 37020 ft | 430 kts | 183° |
| 2026-04-21 06:06 | 45.85001 | -3.26174 | 37020 ft | 430 kts | 183° |
| 2026-04-21 06:06 | 45.78884 | -3.25783 | 37020 ft | 430 kts | 183° |
| 2026-04-21 06:07 | 45.72770 | -3.25394 | 37020 ft | 430 kts | 183° |
| 2026-04-21 06:07 | 45.66666 | -3.25007 | 37020 ft | 430 kts | 183° |
| 2026-04-21 06:08 | 45.60558 | -3.24618 | 37020 ft | 430 kts | 183° |
| 2026-04-21 06:08 | 45.54478 | -3.24232 | 37006 ft | 431 kts | 183° |
| 2026-04-21 06:09 | 45.48335 | -3.23844 | 36985 ft | 431 kts | 183° |
| 2026-04-21 06:09 | 45.42234 | -3.23459 | 36966 ft | 430 kts | 182° |
| 2026-04-21 06:10 | 45.36189 | -3.23080 | 36964 ft | 424 kts | 182° |
| 2026-04-21 06:10 | 45.30199 | -3.22703 | 36967 ft | 425 kts | 182° |
| 2026-04-21 06:11 | 45.24142 | -3.22324 | 36966 ft | 427 kts | 182° |
| 2026-04-21 06:11 | 45.18090 | -3.21946 | 36965 ft | 426 kts | 182° |
| 2026-04-21 06:12 | 45.12053 | -3.21568 | 36965 ft | 426 kts | 182° |
| 2026-04-21 06:12 | 45.06025 | -3.21194 | 36951 ft | 427 kts | 182° |
| 2026-04-21 06:13 | 44.99971 | -3.20818 | 36930 ft | 427 kts | 182° |
| 2026-04-21 06:13 | 44.93928 | -3.20443 | 36911 ft | 426 kts | 182° |
| 2026-04-21 06:14 | 44.87884 | -3.20068 | 36911 ft | 425 kts | 182° |
| 2026-04-21 06:14 | 44.84902 | -3.19883 | 36629 ft | 424 kts | 182° |
| 2026-04-21 06:14 | 44.81902 | -3.19698 | 35977 ft | 424 kts | 182° |
| 2026-04-21 06:14 | 44.78904 | -3.19511 | 35073 ft | 423 kts | 183° |
| 2026-04-21 06:15 | 44.75908 | -3.19323 | 34363 ft | 417 kts | 183° |
| 2026-04-21 06:15 | 44.72999 | -3.19140 | 33512 ft | 414 kts | 183° |
| 2026-04-21 06:15 | 44.70063 | -3.18962 | 33063 ft | 406 kts | 182° |
| 2026-04-21 06:15 | 44.67221 | -3.18790 | 32328 ft | 400 kts | 182° |
| 2026-04-21 06:16 | 44.64433 | -3.18619 | 31916 ft | 391 kts | 182° |
| 2026-04-21 06:16 | 44.61651 | -3.18451 | 31423 ft | 389 kts | 182° |
| 2026-04-21 06:16 | 44.58908 | -3.18286 | 30955 ft | 386 kts | 182° |
| 2026-04-21 06:16 | 44.56171 | -3.18121 | 30485 ft | 384 kts | 182° |
| 2026-04-21 06:17 | 44.53488 | -3.17958 | 30025 ft | 381 kts | 182° |
| 2026-04-21 06:17 | 44.50792 | -3.17794 | 29564 ft | 378 kts | 182° |
| 2026-04-21 06:17 | 44.48125 | -3.17631 | 29105 ft | 375 kts | 182° |
| 2026-04-21 06:17 | 44.45471 | -3.17470 | 28648 ft | 373 kts | 182° |
| 2026-04-21 06:18 | 44.42830 | -3.17310 | 28186 ft | 370 kts | 182° |
| 2026-04-21 06:18 | 44.40224 | -3.17153 | 27735 ft | 368 kts | 182° |
| 2026-04-21 06:18 | 44.37608 | -3.16994 | 27275 ft | 365 kts | 181° |
| 2026-04-21 06:18 | 44.35051 | -3.16838 | 26827 ft | 363 kts | 181° |
| 2026-04-21 06:19 | 44.32472 | -3.16681 | 26373 ft | 361 kts | 181° |
| 2026-04-21 06:19 | 44.29944 | -3.16528 | 25933 ft | 358 kts | 181° |
| 2026-04-21 06:19 | 44.27391 | -3.16373 | 25490 ft | 355 kts | 181° |
| 2026-04-21 06:19 | 44.24908 | -3.16223 | 25059 ft | 353 kts | 181° |
| 2026-04-21 06:20 | 44.22401 | -3.16074 | 24620 ft | 351 kts | 181° |
| 2026-04-21 06:20 | 44.19920 | -3.15924 | 24187 ft | 348 kts | 181° |
| 2026-04-21 06:20 | 44.17500 | -3.15778 | 23769 ft | 346 kts | 181° |
| 2026-04-21 06:20 | 44.15033 | -3.15626 | 23334 ft | 343 kts | 181° |
| 2026-04-21 06:21 | 44.12620 | -3.15479 | 22909 ft | 341 kts | 181° |
| 2026-04-21 06:21 | 44.10199 | -3.15340 | 22483 ft | 338 kts | 182° |
| 2026-04-21 06:21 | 44.07852 | -3.15500 | 22072 ft | 333 kts | 191° |
| 2026-04-21 06:21 | 44.05557 | -3.16257 | 21660 ft | 327 kts | 203° |
| 2026-04-21 06:22 | 44.03500 | -3.17615 | 21256 ft | 321 kts | 213° |
| 2026-04-21 06:22 | 44.01650 | -3.19449 | 20844 ft | 317 kts | 222° |
| 2026-04-21 06:22 | 43.99976 | -3.21512 | 20441 ft | 314 kts | 224° |
| 2026-04-21 06:22 | 43.98331 | -3.23617 | 20035 ft | 312 kts | 224° |
| 2026-04-21 06:23 | 43.96728 | -3.25658 | 19642 ft | 310 kts | 224° |
| 2026-04-21 06:23 | 43.95090 | -3.27733 | 19243 ft | 308 kts | 224° |
| 2026-04-21 06:23 | 43.93475 | -3.29776 | 18848 ft | 306 kts | 224° |
| 2026-04-21 06:23 | 43.91883 | -3.31785 | 18460 ft | 304 kts | 224° |
| 2026-04-21 06:24 | 43.90290 | -3.33793 | 18071 ft | 303 kts | 224° |
| 2026-04-21 06:24 | 43.88702 | -3.35792 | 17682 ft | 301 kts | 224° |
| 2026-04-21 06:24 | 43.87134 | -3.37764 | 17299 ft | 299 kts | 224° |
| 2026-04-21 06:24 | 43.85554 | -3.39751 | 16912 ft | 297 kts | 224° |
| 2026-04-21 06:25 | 43.84015 | -3.41684 | 16536 ft | 295 kts | 224° |
| 2026-04-21 06:25 | 43.82458 | -3.43638 | 16153 ft | 294 kts | 224° |
| 2026-04-21 06:25 | 43.80942 | -3.45540 | 15783 ft | 292 kts | 224° |
| 2026-04-21 06:25 | 43.79409 | -3.47460 | 15406 ft | 291 kts | 224° |
| 2026-04-21 06:26 | 43.77887 | -3.49366 | 15033 ft | 289 kts | 224° |
| 2026-04-21 06:26 | 43.76365 | -3.51271 | 14660 ft | 288 kts | 223° |
| 2026-04-21 06:26 | 43.74860 | -3.53153 | 14291 ft | 286 kts | 223° |
| 2026-04-21 06:26 | 43.73365 | -3.55021 | 13932 ft | 284 kts | 223° |
| 2026-04-21 06:27 | 43.71896 | -3.56856 | 13563 ft | 283 kts | 223° |
| 2026-04-21 06:27 | 43.70414 | -3.58705 | 13197 ft | 282 kts | 223° |
| 2026-04-21 06:27 | 43.68932 | -3.60552 | 12833 ft | 280 kts | 223° |
| 2026-04-21 06:27 | 43.67455 | -3.62392 | 12468 ft | 279 kts | 223° |
| 2026-04-21 06:28 | 43.66007 | -3.64197 | 12112 ft | 278 kts | 223° |
| 2026-04-21 06:28 | 43.64562 | -3.65993 | 11769 ft | 276 kts | 223° |
| 2026-04-21 06:28 | 43.63227 | -3.67936 | 11483 ft | 279 kts | 238° |
| 2026-04-21 06:28 | 43.62647 | -3.70544 | 11463 ft | 285 kts | 268° |
| 2026-04-21 06:29 | 43.63030 | -3.73294 | 11165 ft | 288 kts | 292° |
| 2026-04-21 06:29 | 43.63926 | -3.75810 | 10579 ft | 288 kts | 295° |
| 2026-04-21 06:29 | 43.64809 | -3.78317 | 9981 ft | 283 kts | 293° |
| 2026-04-21 06:29 | 43.65539 | -3.80813 | 9766 ft | 267 kts | 287° |
| 2026-04-21 06:30 | 43.66032 | -3.83307 | 9353 ft | 262 kts | 282° |
| 2026-04-21 06:30 | 43.66394 | -3.85821 | 9020 ft | 261 kts | 277° |
| 2026-04-21 06:30 | 43.66588 | -3.88334 | 8685 ft | 261 kts | 272° |
| 2026-04-21 06:30 | 43.66625 | -3.90878 | 8352 ft | 261 kts | 268° |
| 2026-04-21 06:31 | 43.66512 | -3.93428 | 8017 ft | 260 kts | 262° |
| 2026-04-21 06:31 | 43.66238 | -3.95951 | 7686 ft | 259 kts | 258° |
| 2026-04-21 06:31 | 43.65814 | -3.98423 | 7350 ft | 259 kts | 253° |
| 2026-04-21 06:31 | 43.65236 | -4.00848 | 7016 ft | 258 kts | 248° |
| 2026-04-21 06:32 | 43.64521 | -4.03160 | 6689 ft | 257 kts | 243° |
| 2026-04-21 06:32 | 43.63674 | -4.05367 | 6366 ft | 256 kts | 238° |
| 2026-04-21 06:32 | 43.62702 | -4.07462 | 6150 ft | 251 kts | 234° |
| 2026-04-21 06:32 | 43.61625 | -4.09418 | 5826 ft | 250 kts | 229° |
| 2026-04-21 06:33 | 43.60435 | -4.11238 | 5501 ft | 250 kts | 224° |
| 2026-04-21 06:33 | 43.59138 | -4.12909 | 5178 ft | 249 kts | 219° |
| 2026-04-21 06:33 | 43.57772 | -4.14390 | 4861 ft | 249 kts | 214° |
| 2026-04-21 06:33 | 43.56297 | -4.15726 | 4541 ft | 249 kts | 210° |
| 2026-04-21 06:34 | 43.54703 | -4.16710 | 4277 ft | 243 kts | 188° |
| 2026-04-21 06:34 | 43.53106 | -4.16419 | 4240 ft | 225 kts | 150° |
| 2026-04-21 06:34 | 43.52001 | -4.14951 | 4183 ft | 217 kts | 120° |
| 2026-04-21 06:34 | 43.51334 | -4.13019 | 4123 ft | 223 kts | 111° |
| 2026-04-21 06:35 | 43.50770 | -4.11033 | 3971 ft | 214 kts | 111° |
| 2026-04-21 06:35 | 43.50205 | -4.09106 | 3582 ft | 217 kts | 111° |
| 2026-04-21 06:35 | 43.49624 | -4.07138 | 3218 ft | 210 kts | 111° |
| 2026-04-21 06:35 | 43.49082 | -4.05295 | 2916 ft | 199 kts | 111° |
| 2026-04-21 06:36 | 43.48568 | -4.03537 | 2588 ft | 192 kts | 110° |
| 2026-04-21 06:36 | 43.48076 | -4.01854 | 2326 ft | 181 kts | 111° |
| 2026-04-21 06:36 | 43.47608 | -4.00256 | 2029 ft | 172 kts | 111° |
| 2026-04-21 06:36 | 43.47172 | -3.98738 | 1799 ft | 161 kts | 110° |
| 2026-04-21 06:37 | 43.46788 | -3.97318 | 1704 ft | 152 kts | 109° |
| 2026-04-21 06:37 | 43.46429 | -3.95970 | 1686 ft | 144 kts | 109° |
| 2026-04-21 06:37 | 43.46079 | -3.94650 | 1570 ft | 145 kts | 109° |
| 2026-04-21 06:37 | 43.45730 | -3.93321 | 1524 ft | 145 kts | 109° |
| 2026-04-21 06:38 | 43.45372 | -3.91985 | 1439 ft | 146 kts | 110° |
| 2026-04-21 06:38 | 43.45007 | -3.90623 | 1195 ft | 148 kts | 110° |
| 2026-04-21 06:38 | 43.44654 | -3.89296 | 954 ft | 142 kts | 110° |
| 2026-04-21 06:38 | 43.44307 | -3.87993 | 806 ft | 144 kts | 109° |
| 2026-04-21 06:39 | 43.43951 | -3.86660 | 577 ft | 145 kts | 110° |
| 2026-04-21 06:39 | 43.43603 | -3.85354 | 343 ft | 142 kts | 109° |
| 2026-04-21 06:39 | 43.43258 | -3.84060 | 189 ft | 142 kts | 109° |
| 2026-04-21 06:39 | 43.42917 | -3.82781 | 25 ft | 135 kts | 109° |
| 2026-04-21 06:40 | 43.42650 | -3.81790 | 9 ft | 70 kts | 112° |
| 2026-04-21 06:40 | 43.42553 | -3.81434 | 12 ft | 14 kts | 109° |
| 2026-04-21 06:40 | 43.42536 | -3.81370 | 12 ft | 2 kts | 109° |
| 2026-04-21 06:40 | 43.42534 | -3.81361 | 12 ft | 0 kts | 109° |
| 2026-04-21 06:41 | 43.42528 | -3.81339 | 12 ft | 4 kts | 115° |
| 2026-04-21 06:41 | 43.42489 | -3.81301 | 13 ft | 8 kts | 178° |
| 2026-04-21 06:41 | 43.42413 | -3.81331 | 14 ft | 12 kts | 199° |
| 2026-04-21 06:41 | 43.42387 | -3.81439 | 14 ft | 15 kts | 287° |
| 2026-04-21 06:42 | 43.42433 | -3.81608 | 11 ft | 21 kts | 290° |
| 2026-04-21 06:42 | 43.42489 | -3.81817 | 9 ft | 23 kts | 292° |
| 2026-04-21 06:42 | 43.42531 | -3.81984 | 9 ft | 13 kts | 279° |
| 2026-04-21 06:42 | 43.42486 | -3.82064 | 10 ft | 10 kts | 200° |
| 2026-04-21 06:43 | 43.42426 | -3.82096 | 11 ft | 7 kts | 201° |
| 2026-04-21 06:43 | 43.42412 | -3.82105 | 12 ft | 2 kts | 207° |
| 2026-04-21 06:43 | 43.42397 | -3.82123 | 13 ft | 4 kts | 239° |
| 2026-04-21 06:43 | 43.42398 | -3.82170 | 13 ft | 7 kts | 285° |
| 2026-04-21 06:44 | 43.42418 | -3.82252 | 14 ft | 6 kts | 289° |
| 2026-04-21 06:44 | 43.42412 | -3.82286 | 14 ft | 3 kts | 185° |
| 2026-04-21 06:44 | 43.42395 | -3.82279 | 15 ft | 1 kts | 159° |
| 2026-04-21 06:44 | 43.42394 | -3.82278 | 15 ft | 0 kts | 158° |